Time;durP1;ratioP1;P1;durP2;ratioP2;P2;SDS_P1;SDS_P2;PMS_P1;PMS_P2;Temp;Humidity;BMP_temperature;BMP_pressure;BME280_temperature;BME280_humidity;BME280_pressure;Samples;Min_cycle;Max_cycle;Signal;HPM_P1;HPM_P2
2023/04/06 00:00:17;;;;;;;12.15;7.05;;;;;;;1.20;67.42;99808.25;344725;28;1254;-70
2023/04/06 00:00:43;;;;;;;11.70;7.00;;;;;;;1.29;67.27;99811.72;346093;28;1105;-70
2023/04/06 00:01:22;;;;;;;11.40;7.10;;;;;;;1.32;67.30;99809.19;345717;28;1601;-70
2023/04/06 00:01:46;;;;;;;10.32;6.80;;;;;;;1.35;66.99;99811.81;345043;28;1809;-70
2023/04/06 00:02:26;;;;;;;10.90;6.82;;;;;;;1.37;66.90;99807.56;340301;28;2013;-70
2023/04/06 00:02:47;;;;;;;10.77;7.15;;;;;;;1.36;66.57;99809.22;343466;28;1747;-70
2023/04/06 00:03:11;;;;;;;11.00;6.63;;;;;;;1.35;67.05;99806.69;343975;28;1657;-70
2023/04/06 00:03:38;;;;;;;12.32;6.90;;;;;;;1.38;66.87;99809.25;343866;28;1814;-70
2023/04/06 00:04:00;;;;;;;14.07;7.18;;;;;;;1.32;67.10;99806.63;343249;28;1600;-70
2023/04/06 00:04:19;;;;;;;10.88;6.88;;;;;;;1.33;67.04;99808.38;343598;28;1531;-70
2023/04/06 00:04:52;;;;;;;10.88;6.95;;;;;;;1.31;67.21;99810.91;340937;29;1168;-71
2023/04/06 00:05:20;;;;;;;11.57;6.90;;;;;;;1.31;66.93;99804.91;344534;28;1097;-70
2023/04/06 00:06:01;;;;;;;12.35;7.05;;;;;;;1.31;67.09;99810.03;341528;28;1726;-70
2023/04/06 00:06:14;;;;;;;11.45;6.93;;;;;;;1.30;66.83;99813.47;340928;28;1156;-70
2023/04/06 00:06:50;;;;;;;10.50;6.80;;;;;;;1.27;66.94;99810.84;344902;28;2580;-70
2023/04/06 00:07:09;;;;;;;11.15;7.07;;;;;;;1.24;67.65;99805.72;344859;28;1027;-70
2023/04/06 00:07:29;;;;;;;11.88;6.88;;;;;;;1.24;67.83;99810.84;345902;28;1926;-70
2023/04/06 00:07:42;;;;;;;10.15;7.00;;;;;;;1.21;67.18;99804.00;346473;28;986;-70
2023/04/06 00:07:58;;;;;;;9.95;6.95;;;;;;;1.22;67.44;99807.41;345422;28;2204;-70
2023/04/06 00:08:15;;;;;;;12.27;6.88;;;;;;;1.23;67.29;99806.56;344387;28;1298;-69
2023/04/06 00:08:28;;;;;;;12.60;6.90;;;;;;;1.20;68.12;99805.69;344837;28;1781;-70
2023/04/06 00:08:41;;;;;;;12.05;6.80;;;;;;;1.22;67.65;99808.28;346366;28;2176;-70
2023/04/06 00:08:58;;;;;;;13.10;7.03;;;;;;;1.22;67.55;99815.09;346066;28;1843;-70
2023/04/06 00:09:18;;;;;;;12.10;7.05;;;;;;;1.17;68.07;99808.25;345986;28;1110;-70
2023/04/06 00:09:36;;;;;;;11.70;7.05;;;;;;;1.17;67.75;99810.81;346795;28;1000;-71
2023/04/06 00:09:54;;;;;;;11.60;6.97;;;;;;;1.18;67.36;99804.81;345437;28;1899;-71
2023/04/06 00:10:08;;;;;;;10.85;6.97;;;;;;;1.15;67.60;99804.81;343941;28;1143;-71
2023/04/06 00:10:23;;;;;;;11.73;7.13;;;;;;;1.14;67.66;99810.75;346436;28;1022;-71
2023/04/06 00:10:49;;;;;;;12.18;6.82;;;;;;;1.11;68.20;99809.91;345470;28;1248;-71
2023/04/06 00:11:04;;;;;;;10.73;6.75;;;;;;;1.16;67.73;99811.63;344859;28;1051;-71
2023/04/06 00:11:16;;;;;;;11.32;7.22;;;;;;;1.18;68.32;99804.81;344819;28;1255;-70
2023/04/06 00:11:28;;;;;;;10.73;7.25;;;;;;;1.15;68.12;99804.81;344195;28;1706;-70
2023/04/06 00:11:51;;;;;;;11.13;7.07;;;;;;;1.19;68.21;99811.66;345158;28;1254;-70
2023/04/06 00:12:04;;;;;;;11.35;6.93;;;;;;;1.14;67.73;99813.31;345191;28;1798;-71
2023/04/06 00:12:19;;;;;;;11.73;7.07;;;;;;;1.01;68.71;99811.53;346494;28;1026;-70
2023/04/06 00:12:31;;;;;;;12.88;7.00;;;;;;;0.95;68.81;99808.91;346453;28;1199;-71
2023/04/06 00:12:43;;;;;;;12.40;7.03;;;;;;;1.00;68.51;99813.22;346681;28;995;-70
2023/04/06 00:13:05;;;;;;;11.48;7.07;;;;;;;0.92;68.19;99812.28;345736;28;1095;-70
2023/04/06 00:13:17;;;;;;;12.02;6.93;;;;;;;1.01;68.18;99808.97;345114;28;1055;-70
2023/04/06 00:13:34;;;;;;;12.05;7.00;;;;;;;1.02;68.98;99808.09;346641;28;1238;-70
2023/04/06 00:13:52;;;;;;;11.50;6.90;;;;;;;1.13;68.95;99805.66;345112;28;1027;-70
2023/04/06 00:14:04;;;;;;;10.95;6.85;;;;;;;1.15;68.68;99809.94;344901;28;1173;-71
2023/04/06 00:14:17;;;;;;;12.82;7.22;;;;;;;1.18;69.29;99799.69;345044;28;1178;-70
2023/04/06 00:14:29;;;;;;;12.77;7.50;;;;;;;1.24;68.94;99808.28;345098;28;1094;-70
2023/04/06 00:14:41;;;;;;;12.60;7.43;;;;;;;1.29;68.92;99806.59;344227;28;1096;-70
2023/04/06 00:14:59;;;;;;;11.35;7.10;;;;;;;1.33;68.90;99798.13;344931;28;1087;-70
2023/04/06 00:15:12;;;;;;;10.63;6.88;;;;;;;1.35;68.55;99801.56;345072;28;1261;-70
2023/04/06 00:15:28;;;;;;;9.80;6.90;;;;;;;1.39;68.81;99804.13;346385;28;1413;-70
2023/04/06 00:15:40;;;;;;;9.07;6.90;;;;;;;1.43;68.34;99799.91;346536;28;1049;-70
2023/04/06 00:15:52;;;;;;;8.95;6.97;;;;;;;1.45;68.64;99798.22;344565;28;986;-70
2023/04/06 00:16:06;;;;;;;10.23;7.05;;;;;;;1.47;68.46;99793.94;345540;28;1023;-71
2023/04/06 00:16:19;;;;;;;11.25;6.97;;;;;;;1.49;68.51;99805.06;346488;28;1089;-71
2023/04/06 00:16:48;;;;;;;10.50;6.60;;;;;;;1.56;68.30;99796.56;344348;28;2031;-71
2023/04/06 00:17:00;;;;;;;12.52;7.10;;;;;;;1.58;67.77;99799.13;344535;28;1424;-71
2023/04/06 00:17:12;;;;;;;13.23;7.30;;;;;;;1.60;67.99;99798.28;345573;28;1158;-70
2023/04/06 00:17:27;;;;;;;11.82;7.13;;;;;;;1.65;67.44;99805.13;346365;28;1093;-70
2023/04/06 00:17:56;;;;;;;11.50;7.15;;;;;;;1.70;67.43;99798.34;342577;28;1826;-70
2023/04/06 00:18:11;;;;;;;11.60;7.07;;;;;;;1.72;67.46;99794.09;346630;28;1126;-70
2023/04/06 00:18:34;;;;;;;13.13;6.88;;;;;;;1.74;68.18;99795.81;345606;28;979;-70
2023/04/06 00:18:52;;;;;;;12.35;7.03;;;;;;;1.76;68.38;99798.38;346330;28;1621;-70
2023/04/06 00:19:41;;;;;;;13.18;7.65;;;;;;;1.70;67.86;99793.22;344756;28;2157;-70
2023/04/06 00:19:59;;;;;;;10.15;6.70;;;;;;;1.74;68.65;99800.09;346113;28;1276;-70
2023/04/06 00:20:23;;;;;;;11.60;7.00;;;;;;;1.77;68.48;99794.97;346645;28;1333;-71
2023/04/06 00:20:46;;;;;;;10.60;6.93;;;;;;;1.77;68.56;99789.84;344212;28;1610;-70
2023/04/06 00:21:06;;;;;;;9.05;6.30;;;;;;;1.76;68.87;99794.09;344181;28;1160;-71
2023/04/06 00:21:25;;;;;;;10.20;6.72;;;;;;;1.81;68.65;99796.69;346718;28;1087;-70
2023/04/06 00:22:10;;;;;;;10.57;6.70;;;;;;;1.93;68.25;99796.78;343977;28;1063;-70
2023/04/06 00:22:58;;;;;;;12.20;6.80;;;;;;;1.95;68.43;99795.06;340122;29;1024;-70
2023/04/06 00:23:14;;;;;;;10.05;6.70;;;;;;;1.97;68.38;99798.50;342139;28;1069;-70
2023/04/06 00:23:49;;;;;;;9.02;6.53;;;;;;;2.00;68.10;99790.81;342716;28;1257;-70
2023/04/06 00:24:18;;;;;;;11.85;7.10;;;;;;;1.99;67.88;99796.81;341308;28;1573;-71
2023/04/06 00:24:30;;;;;;;10.75;6.82;;;;;;;1.96;68.09;99795.94;340881;29;989;-70
2023/04/06 00:24:43;;;;;;;10.85;7.03;;;;;;;1.98;67.76;99789.94;340779;29;1102;-70
2023/04/06 00:25:10;;;;;;;10.60;7.18;;;;;;;1.99;68.17;99798.47;337957;28;1699;-70
2023/04/06 00:25:40;;;;;;;9.73;6.90;;;;;;;1.94;68.21;99795.91;342065;28;1075;-70
2023/04/06 00:25:55;;;;;;;11.98;6.75;;;;;;;1.94;67.63;99788.22;342378;28;1505;-71
2023/04/06 00:26:14;;;;;;;12.48;7.22;;;;;;;1.91;68.23;99798.47;343993;28;1175;-70
2023/04/06 00:26:50;;;;;;;13.90;7.50;;;;;;;1.82;67.67;99793.28;346481;28;1042;-70
2023/04/06 00:27:02;;;;;;;11.77;6.80;;;;;;;1.79;68.30;99793.25;346121;28;1121;-70
2023/04/06 00:27:14;;;;;;;11.23;6.85;;;;;;;1.73;68.13;99799.22;346520;28;1219;-70
2023/04/06 00:27:26;;;;;;;10.70;7.10;;;;;;;1.74;68.05;99794.97;346673;28;1102;-70
2023/04/06 00:27:38;;;;;;;11.38;7.35;;;;;;;1.73;68.33;99793.22;346719;28;1101;-70
2023/04/06 00:27:50;;;;;;;11.68;7.32;;;;;;;1.71;68.34;99792.38;344695;28;1695;-70
2023/04/06 00:28:03;;;;;;;10.70;6.90;;;;;;;1.71;68.32;99793.25;346212;28;1497;-71
2023/04/06 00:28:25;;;;;;;10.73;6.82;;;;;;;1.69;68.17;99796.63;346887;28;1285;-70
2023/04/06 00:28:43;;;;;;;11.13;6.82;;;;;;;1.61;68.28;99799.16;345012;28;1930;-70
2023/04/06 00:28:55;;;;;;;10.75;6.90;;;;;;;1.62;68.81;99792.31;346399;28;1824;-70
2023/04/06 00:29:07;;;;;;;10.10;6.75;;;;;;;1.63;68.19;99791.47;345968;28;1889;-70
2023/04/06 00:29:19;;;;;;;10.75;6.93;;;;;;;1.60;68.33;99793.16;346395;28;1703;-70
2023/04/06 00:29:31;;;;;;;11.30;7.20;;;;;;;1.61;68.53;99788.91;345231;28;1922;-71
2023/04/06 00:29:44;;;;;;;11.25;7.10;;;;;;;1.62;69.08;99794.91;345799;28;2326;-70
2023/04/06 00:29:57;;;;;;;12.45;7.28;;;;;;;1.64;68.55;99793.19;345129;28;1549;-71
2023/04/06 00:30:10;;;;;;;12.35;7.28;;;;;;;1.64;68.11;99793.19;345409;28;1211;-71
2023/04/06 00:30:22;;;;;;;11.05;6.95;;;;;;;1.66;68.41;99794.06;344654;28;1276;-71
2023/04/06 00:30:34;;;;;;;10.60;6.97;;;;;;;1.58;67.92;99794.84;345050;28;1042;-71
2023/04/06 00:30:47;;;;;;;10.68;6.88;;;;;;;1.55;67.90;99789.72;345210;28;1736;-71
2023/04/06 00:30:59;;;;;;;10.63;6.75;;;;;;;1.58;68.10;99792.28;344879;28;1074;-70
2023/04/06 00:31:11;;;;;;;10.32;6.75;;;;;;;1.56;67.79;99795.69;345150;28;1475;-70
2023/04/06 00:31:30;;;;;;;9.90;6.93;;;;;;;1.56;67.15;99791.44;345255;28;1340;-70
2023/04/06 00:31:42;;;;;;;10.02;7.03;;;;;;;1.55;67.57;99789.72;346671;28;1008;-70
2023/04/06 00:31:54;;;;;;;11.95;7.28;;;;;;;1.56;68.06;99796.56;344911;28;1984;-71
2023/04/06 00:32:07;;;;;;;12.15;7.05;;;;;;;1.51;68.56;99784.56;346097;28;2112;-70
2023/04/06 00:32:19;;;;;;;12.27;6.97;;;;;;;1.51;68.27;99790.56;345184;28;1081;-71
2023/04/06 00:32:31;;;;;;;11.00;6.90;;;;;;;1.55;68.19;99793.97;345701;28;1018;-71
2023/04/06 00:32:52;;;;;;;11.23;6.70;;;;;;;1.59;68.16;99796.59;345432;28;1782;-71
2023/04/06 00:33:05;;;;;;;10.45;6.50;;;;;;;1.62;68.09;99790.63;345640;28;1421;-71
2023/04/06 00:33:22;;;;;;;12.07;6.40;;;;;;;1.62;69.14;99784.66;345940;28;1551;-71
2023/04/06 00:33:35;;;;;;;12.77;6.70;;;;;;;1.64;69.19;99790.63;346321;28;1162;-71
2023/04/06 00:33:48;;;;;;;10.38;6.70;;;;;;;1.65;68.87;99785.53;346568;28;1219;-71
2023/04/06 00:34:11;;;;;;;10.32;6.65;;;;;;;1.67;68.86;99794.06;346146;28;1414;-71
2023/04/06 00:34:23;;;;;;;11.40;7.20;;;;;;;1.71;68.76;99789.81;344891;28;1289;-71
2023/04/06 00:34:36;;;;;;;9.95;6.97;;;;;;;1.71;69.27;99793.25;345050;28;1066;-71
2023/04/06 00:34:48;;;;;;;10.35;6.82;;;;;;;1.74;68.85;99790.69;344107;28;1247;-71
2023/04/06 00:35:02;;;;;;;11.02;6.85;;;;;;;1.78;68.67;99789.00;345987;28;1456;-71
2023/04/06 00:35:15;;;;;;;13.00;7.00;;;;;;;1.80;68.64;99789.88;346457;28;958;-70
2023/04/06 00:35:27;;;;;;;13.77;7.13;;;;;;;1.83;68.70;99786.44;346702;28;1010;-70
2023/04/06 00:35:40;;;;;;;13.43;7.22;;;;;;;1.83;69.27;99795.00;346082;28;1090;-70
2023/04/06 00:35:52;;;;;;;13.17;7.03;;;;;;;1.83;69.07;99784.72;345891;28;1050;-70
2023/04/06 00:36:05;;;;;;;12.35;6.57;;;;;;;1.84;69.20;99790.75;346117;28;1749;-70
2023/04/06 00:36:17;;;;;;;10.13;6.53;;;;;;;1.83;69.06;99784.72;346179;28;1007;-70
2023/04/06 00:36:32;;;;;;;10.80;7.07;;;;;;;1.87;68.91;99783.94;344886;28;1532;-71
2023/04/06 00:36:47;;;;;;;10.35;7.03;;;;;;;1.89;69.18;99789.91;345139;28;1189;-71
2023/04/06 00:36:59;;;;;;;10.02;7.03;;;;;;;1.89;69.27;99787.34;345133;28;1307;-70
2023/04/06 00:37:11;;;;;;;9.90;6.68;;;;;;;1.89;68.51;99789.03;344931;28;1105;-71
2023/04/06 00:37:24;;;;;;;11.32;6.95;;;;;;;1.88;68.94;99790.75;344977;28;1063;-70
2023/04/06 00:37:36;;;;;;;11.00;6.88;;;;;;;1.79;68.71;99790.69;345015;28;1054;-70
2023/04/06 00:37:49;;;;;;;11.30;7.00;;;;;;;1.77;69.13;99787.28;345582;28;1341;-70
2023/04/06 00:38:01;;;;;;;10.88;7.13;;;;;;;1.73;68.59;99783.84;346340;28;1264;-71
2023/04/06 00:38:14;;;;;;;11.05;7.50;;;;;;;1.75;69.23;99786.41;346466;28;1062;-74
2023/04/06 00:38:26;;;;;;;10.10;6.97;;;;;;;1.79;69.16;99785.56;346389;28;1174;-70
2023/04/06 00:38:38;;;;;;;9.90;6.43;;;;;;;1.79;68.60;99783.00;345453;28;1066;-70
2023/04/06 00:38:50;;;;;;;10.23;6.50;;;;;;;1.78;68.52;99786.44;345469;28;1067;-70
2023/04/06 00:39:05;;;;;;;10.50;6.82;;;;;;;1.71;69.16;99788.13;346353;28;1118;-70
2023/04/06 00:39:28;;;;;;;9.95;6.57;;;;;;;1.67;69.11;99781.25;345868;28;1123;-71
2023/04/06 00:39:41;;;;;;;9.45;6.38;;;;;;;1.57;68.92;99782.91;346310;28;1320;-69
2023/04/06 00:39:53;;;;;;;10.45;6.40;;;;;;;1.55;69.54;99782.03;346519;28;1289;-70
2023/04/06 00:40:13;;;;;;;11.07;6.32;;;;;;;1.55;68.87;99784.59;346474;28;1077;-71
2023/04/06 00:40:27;;;;;;;10.10;6.10;;;;;;;1.48;68.87;99787.97;346050;28;1022;-71
2023/04/06 00:40:46;;;;;;;9.02;6.22;;;;;;;1.39;69.29;99782.81;346304;28;1061;-72
2023/04/06 00:40:58;;;;;;;10.30;6.68;;;;;;;1.33;69.60;99783.59;346299;28;1106;-72
2023/04/06 00:41:10;;;;;;;10.90;6.85;;;;;;;1.37;69.19;99782.78;346427;28;1216;-72
2023/04/06 00:41:22;;;;;;;10.35;6.75;;;;;;;1.36;69.37;99782.75;346320;28;1276;-72
2023/04/06 00:41:34;;;;;;;9.73;6.60;;;;;;;1.38;69.07;99786.19;346032;28;1270;-71
2023/04/06 00:41:56;;;;;;;9.75;6.72;;;;;;;1.32;68.63;99781.88;346519;28;1222;-70
2023/04/06 00:42:13;;;;;;;9.52;6.70;;;;;;;1.34;68.90;99780.19;346554;28;1091;-70
2023/04/06 00:42:25;;;;;;;10.52;6.75;;;;;;;1.29;68.44;99786.13;346652;28;1696;-70
2023/04/06 00:42:38;;;;;;;10.63;6.57;;;;;;;1.27;68.31;99783.56;346565;28;1079;-70
2023/04/06 00:42:53;;;;;;;10.80;6.63;;;;;;;1.30;68.12;99782.72;346702;28;1058;-71
2023/04/06 00:43:19;;;;;;;11.45;6.63;;;;;;;1.25;67.75;99789.50;346729;28;1787;-70
2023/04/06 00:43:40;;;;;;;10.32;6.50;;;;;;;1.27;68.25;99783.56;345971;28;2202;-72
2023/04/06 00:44:13;;;;;;;9.63;6.60;;;;;;;1.25;68.31;99784.38;346484;28;1022;-72
2023/04/06 00:44:49;;;;;;;10.90;6.85;;;;;;;1.32;68.16;99778.47;346030;28;1151;-71
2023/04/06 00:45:09;;;;;;;10.10;6.45;;;;;;;1.37;68.72;99785.34;344724;28;1091;-70
2023/04/06 00:45:26;;;;;;;10.57;6.55;;;;;;;1.40;68.57;99781.94;345209;28;1037;-70
2023/04/06 00:45:50;;;;;;;10.25;6.80;;;;;;;1.42;68.29;99782.81;345288;28;1096;-70
2023/04/06 00:46:11;;;;;;;10.00;6.32;;;;;;;1.47;68.77;99776.03;345985;28;1736;-72
2023/04/06 00:46:23;;;;;;;11.00;6.35;;;;;;;1.49;68.57;99782.00;346490;28;1095;-72
2023/04/06 00:46:36;;;;;;;10.93;6.35;;;;;;;1.51;68.90;99777.75;346636;28;1280;-72
2023/04/06 00:46:48;;;;;;;10.15;6.50;;;;;;;1.50;69.00;99776.03;346274;28;1404;-72
2023/04/06 00:47:00;;;;;;;10.35;6.60;;;;;;;1.53;69.14;99781.19;346186;28;1292;-72
2023/04/06 00:47:12;;;;;;;12.00;6.70;;;;;;;1.56;68.44;99776.06;345399;28;1804;-73
2023/04/06 00:47:25;;;;;;;12.13;6.60;;;;;;;1.62;69.04;99779.53;344599;28;2043;-71
2023/04/06 00:47:38;;;;;;;11.23;6.38;;;;;;;1.65;68.77;99779.53;346250;28;1259;-70
2023/04/06 00:47:50;;;;;;;8.88;6.40;;;;;;;1.68;68.73;99775.28;346384;28;1260;-71
2023/04/06 00:48:02;;;;;;;9.15;6.47;;;;;;;1.72;68.53;99781.28;346486;28;1035;-71
2023/04/06 00:48:14;;;;;;;8.70;6.18;;;;;;;1.76;67.84;99777.88;346261;28;1185;-70
2023/04/06 00:48:26;;;;;;;9.35;6.05;;;;;;;1.79;68.17;99777.88;345553;28;1968;-71
2023/04/06 00:48:40;;;;;;;9.45;6.05;;;;;;;1.84;68.24;99777.94;345743;28;1686;-71
2023/04/06 00:48:52;;;;;;;9.50;6.03;;;;;;;1.85;67.94;99772.81;345156;28;1350;-71
2023/04/06 00:49:04;;;;;;;10.20;6.30;;;;;;;1.89;67.36;99778.78;345169;28;1070;-72
2023/04/06 00:49:17;;;;;;;9.98;6.55;;;;;;;1.82;68.27;99777.91;345553;28;1252;-71
2023/04/06 00:49:29;;;;;;;10.48;6.68;;;;;;;1.71;68.51;99774.44;346295;28;2035;-73
2023/04/06 00:49:41;;;;;;;11.02;6.90;;;;;;;1.58;69.55;99776.94;346589;28;1364;-72
2023/04/06 00:49:55;;;;;;;10.93;7.22;;;;;;;1.41;69.44;99775.97;345983;28;1575;-70
2023/04/06 00:50:07;;;;;;;10.27;7.50;;;;;;;1.21;70.66;99780.97;346714;28;1094;-71
2023/04/06 00:50:19;;;;;;;10.65;7.47;;;;;;;1.14;70.96;99782.59;346201;28;1256;-71
2023/04/06 00:50:31;;;;;;;11.35;7.55;;;;;;;1.15;71.45;99784.34;346414;28;1253;-71
2023/04/06 00:50:45;;;;;;;12.63;8.15;;;;;;;1.29;71.02;99781.00;345597;28;1836;-71
2023/04/06 00:50:57;;;;;;;13.35;8.85;;;;;;;1.38;71.08;99775.94;345805;28;1158;-71
2023/04/06 00:51:09;;;;;;;12.88;8.15;;;;;;;1.36;70.40;99777.66;346241;28;1193;-71
2023/04/06 00:51:22;;;;;;;13.52;7.85;;;;;;;1.24;70.23;99778.41;346300;28;1066;-71
2023/04/06 00:51:35;;;;;;;14.27;7.38;;;;;;;1.14;70.29;99777.47;346467;28;1396;-70
2023/04/06 00:51:47;;;;;;;13.85;7.32;;;;;;;1.07;70.55;99780.84;345323;28;1992;-72
2023/04/06 00:52:00;;;;;;;12.90;7.88;;;;;;;1.06;71.38;99781.69;346090;28;1809;-73
2023/04/06 00:52:12;;;;;;;11.90;8.00;;;;;;;0.90;71.35;99784.97;346342;28;1004;-72
2023/04/06 00:52:25;;;;;;;10.93;7.57;;;;;;;0.87;71.90;99784.97;346956;28;1375;-73
2023/04/06 00:52:37;;;;;;;9.45;7.32;;;;;;;0.81;71.84;99778.06;347275;28;1229;-71
2023/04/06 00:52:49;;;;;;;11.07;7.68;;;;;;;0.83;72.04;99780.66;347088;28;1759;-71
2023/04/06 00:53:01;;;;;;;12.43;7.80;;;;;;;0.90;71.98;99777.28;346524;28;1039;-70
2023/04/06 00:53:13;;;;;;;12.90;7.70;;;;;;;0.82;72.80;99782.34;346382;28;1173;-70
2023/04/06 00:53:25;;;;;;;11.65;7.72;;;;;;;0.78;72.52;99778.88;346508;28;1062;-70
2023/04/06 00:53:37;;;;;;;11.77;7.70;;;;;;;0.71;72.33;99777.13;346069;28;1051;-70
2023/04/06 00:53:49;;;;;;;11.68;7.88;;;;;;;0.73;72.39;99775.44;346145;28;1288;-70
2023/04/06 00:54:01;;;;;;;11.73;7.88;;;;;;;0.82;72.39;99784.03;346416;28;1755;-70
2023/04/06 00:54:13;;;;;;;12.60;7.97;;;;;;;0.74;72.02;99779.69;346345;28;1189;-70
2023/04/06 00:54:25;;;;;;;13.38;7.80;;;;;;;0.67;71.87;99775.38;345707;28;2156;-70
2023/04/06 00:54:37;;;;;;;15.57;7.75;;;;;;;0.65;72.39;99777.06;346371;28;1273;-71
2023/04/06 00:54:50;;;;;;;13.60;7.65;;;;;;;0.63;72.36;99772.78;346463;28;1301;-71
2023/04/06 00:55:04;;;;;;;12.88;7.90;;;;;;;0.67;72.50;99780.50;345852;28;1979;-71
2023/04/06 00:55:17;;;;;;;12.60;7.70;;;;;;;0.70;71.80;99775.41;346391;28;1256;-71
2023/04/06 00:55:29;;;;;;;14.52;7.43;;;;;;;0.73;71.81;99784.84;346232;28;1041;-71
2023/04/06 00:55:41;;;;;;;14.65;7.78;;;;;;;0.73;71.65;99770.31;346566;28;1033;-71
2023/04/06 00:55:54;;;;;;;13.38;7.82;;;;;;;0.64;71.48;99784.72;344763;28;955;-71
2023/04/06 00:56:06;;;;;;;12.93;7.78;;;;;;;0.45;71.60;99784.56;346307;28;1639;-72
2023/04/06 00:56:18;;;;;;;12.68;7.75;;;;;;;0.48;72.19;99779.44;347210;28;739;-72
2023/04/06 00:56:30;;;;;;;13.48;7.78;;;;;;;0.59;71.78;99782.97;346429;28;1156;-71
2023/04/06 00:56:43;;;;;;;13.88;7.57;;;;;;;0.69;72.00;99778.81;346586;28;1048;-71
2023/04/06 00:56:55;;;;;;;12.90;7.43;;;;;;;0.74;71.91;99779.69;346483;28;1084;-71
2023/04/06 00:57:08;;;;;;;12.25;7.50;;;;;;;0.79;72.81;99772.94;345398;28;1713;-71
2023/04/06 00:57:20;;;;;;;12.35;7.60;;;;;;;0.88;72.27;99776.41;345903;28;2111;-72
2023/04/06 00:57:32;;;;;;;11.73;7.55;;;;;;;0.95;72.86;99773.09;346528;28;1370;-72
2023/04/06 00:57:44;;;;;;;13.60;7.65;;;;;;;0.98;72.61;99771.38;346622;28;1283;-72
2023/04/06 00:57:58;;;;;;;13.45;7.55;;;;;;;1.03;72.75;99774.00;346669;28;1131;-71
2023/04/06 00:58:10;;;;;;;13.20;7.90;;;;;;;1.11;72.12;99771.50;346460;28;1761;-71
2023/04/06 00:58:23;;;;;;;14.93;8.35;;;;;;;1.17;72.30;99774.97;346138;28;1054;-71
2023/04/06 00:58:38;;;;;;;15.75;8.65;;;;;;;1.23;71.64;99773.28;346695;28;1066;-71
2023/04/06 00:58:50;;;;;;;12.23;8.13;;;;;;;1.30;71.54;99773.34;346236;28;1286;-71
2023/04/06 00:59:02;;;;;;;10.80;7.47;;;;;;;1.34;71.30;99763.97;346581;28;1221;-72
2023/04/06 00:59:15;;;;;;;10.82;7.25;;;;;;;1.34;71.03;99771.66;346380;28;1696;-72
2023/04/06 00:59:28;;;;;;;13.20;7.63;;;;;;;1.40;70.72;99769.13;346098;28;1189;-71
2023/04/06 00:59:41;;;;;;;15.38;8.00;;;;;;;1.45;70.77;99770.03;346608;28;1097;-72
2023/04/06 00:59:54;;;;;;;13.13;7.93;;;;;;;1.50;71.02;99765.78;345928;28;1489;-72
2023/04/06 01:00:07;;;;;;;11.35;7.80;;;;;;;1.54;70.67;99772.63;346110;28;2147;-72
2023/04/06 01:00:19;;;;;;;11.35;7.47;;;;;;;1.59;70.48;99776.09;346307;28;1136;-72
2023/04/06 01:00:32;;;;;;;12.48;7.78;;;;;;;1.65;69.71;99774.41;346164;28;2428;-71
2023/04/06 01:00:44;;;;;;;14.32;7.75;;;;;;;1.69;70.26;99771.00;345789;28;1222;-72
2023/04/06 01:00:57;;;;;;;14.85;7.78;;;;;;;1.69;70.19;99769.31;346102;28;1233;-72
2023/04/06 01:01:10;;;;;;;15.27;7.70;;;;;;;1.72;70.00;99768.47;346383;28;1128;-72
2023/04/06 01:01:24;;;;;;;13.23;7.57;;;;;;;1.76;70.13;99775.31;345553;28;1362;-71
2023/04/06 01:01:36;;;;;;;12.07;7.55;;;;;;;1.79;70.27;99767.63;345417;28;1954;-71
2023/04/06 01:01:48;;;;;;;11.80;7.70;;;;;;;1.81;70.26;99771.06;346304;28;1841;-71
2023/04/06 01:02:01;;;;;;;11.68;7.68;;;;;;;1.81;69.89;99771.06;346529;28;1163;-72
2023/04/06 01:02:13;;;;;;;11.55;7.32;;;;;;;1.87;69.58;99775.34;346024;28;1876;-72
2023/04/06 01:02:25;;;;;;;11.02;7.28;;;;;;;1.88;70.30;99772.81;345510;28;1658;-71
2023/04/06 01:02:39;;;;;;;13.40;7.60;;;;;;;1.91;70.22;99771.97;346243;28;1762;-72
2023/04/06 01:02:52;;;;;;;13.98;7.80;;;;;;;1.94;69.94;99772.84;346051;28;1322;-72
2023/04/06 01:03:06;;;;;;;12.93;7.65;;;;;;;1.96;69.95;99766.00;346737;28;1719;-72
2023/04/06 01:03:18;;;;;;;12.10;7.78;;;;;;;1.99;69.92;99773.72;346036;28;1757;-72
2023/04/06 01:03:30;;;;;;;12.60;7.97;;;;;;;2.03;69.53;99766.03;345367;28;1135;-72
2023/04/06 01:03:44;;;;;;;12.57;8.02;;;;;;;2.04;69.11;99768.63;345458;28;1931;-72
2023/04/06 01:03:57;;;;;;;11.85;7.93;;;;;;;2.08;69.09;99766.91;345363;28;1221;-72
2023/04/06 01:04:10;;;;;;;11.43;7.75;;;;;;;2.11;69.52;99774.59;346486;28;1242;-72
2023/04/06 01:04:25;;;;;;;11.52;7.43;;;;;;;2.13;69.45;99763.53;346426;28;1019;-71
2023/04/06 01:04:37;;;;;;;12.18;7.43;;;;;;;2.10;69.36;99771.19;346653;28;941;-71
2023/04/06 01:04:49;;;;;;;11.80;7.72;;;;;;;2.13;69.70;99765.22;345605;28;2013;-72
2023/04/06 01:05:02;;;;;;;11.43;7.88;;;;;;;2.17;69.55;99772.06;345868;28;1592;-72
2023/04/06 01:05:14;;;;;;;11.80;7.72;;;;;;;2.19;69.27;99770.38;345122;28;1051;-72
2023/04/06 01:05:27;;;;;;;12.00;7.30;;;;;;;2.24;69.26;99768.69;343948;28;1096;-72
2023/04/06 01:05:40;;;;;;;11.23;7.20;;;;;;;2.23;69.35;99766.94;344400;28;1277;-72
2023/04/06 01:05:57;;;;;;;10.90;7.13;;;;;;;2.24;68.86;99770.41;343427;28;1919;-72
2023/04/06 01:06:10;;;;;;;11.75;7.22;;;;;;;2.29;68.53;99772.09;344640;28;1756;-72
2023/04/06 01:06:22;;;;;;;11.68;7.40;;;;;;;2.31;68.20;99767.84;344369;28;2177;-72
2023/04/06 01:06:34;;;;;;;12.35;7.72;;;;;;;2.33;67.99;99766.13;343887;28;1986;-72
2023/04/06 01:06:47;;;;;;;14.55;8.35;;;;;;;2.35;67.72;99773.84;345301;28;1973;-72
2023/04/06 01:06:59;;;;;;;13.63;8.32;;;;;;;2.38;67.69;99764.44;345017;28;1533;-72
2023/04/06 01:07:11;;;;;;;12.98;7.88;;;;;;;2.41;67.80;99768.72;345656;28;1500;-72
2023/04/06 01:07:24;;;;;;;12.82;7.75;;;;;;;2.44;67.87;99768.75;345434;28;1838;-72
2023/04/06 01:07:37;;;;;;;12.55;7.32;;;;;;;2.48;67.75;99765.31;345772;28;1879;-71
2023/04/06 01:07:49;;;;;;;13.30;7.72;;;;;;;2.50;67.28;99767.91;346048;28;1691;-71
2023/04/06 01:08:01;;;;;;;13.80;8.20;;;;;;;2.50;66.88;99767.91;346505;28;1756;-72
2023/04/06 01:08:13;;;;;;;12.10;8.20;;;;;;;2.52;66.79;99761.06;345910;28;1166;-72
2023/04/06 01:08:26;;;;;;;12.52;8.00;;;;;;;2.50;67.28;99767.91;346294;28;1094;-72
2023/04/06 01:08:39;;;;;;;13.27;7.70;;;;;;;2.49;67.02;99766.16;345539;28;2227;-72
2023/04/06 01:08:51;;;;;;;13.25;7.65;;;;;;;2.49;67.19;99767.03;344430;28;1161;-72
2023/04/06 01:09:03;;;;;;;12.85;7.53;;;;;;;2.46;66.82;99766.19;344730;28;1066;-72
2023/04/06 01:09:15;;;;;;;13.27;7.75;;;;;;;2.46;67.43;99769.59;344520;28;1006;-72
2023/04/06 01:09:29;;;;;;;14.35;8.10;;;;;;;2.48;67.90;99764.47;344743;28;1176;-72
2023/04/06 01:09:41;;;;;;;13.65;7.78;;;;;;;2.49;67.33;99766.16;344843;28;1286;-72
2023/04/06 01:09:54;;;;;;;13.30;7.68;;;;;;;2.53;67.45;99762.75;343950;28;2102;-72
2023/04/06 01:10:06;;;;;;;13.32;7.35;;;;;;;2.55;67.06;99761.91;344595;28;1781;-72
2023/04/06 01:10:26;;;;;;;12.55;7.22;;;;;;;2.62;66.85;99764.47;345671;28;1229;-72
2023/04/06 01:10:38;;;;;;;12.88;7.90;;;;;;;2.64;66.76;99766.22;346009;28;2031;-72
2023/04/06 01:10:50;;;;;;;12.38;7.70;;;;;;;2.65;66.84;99767.06;345362;28;1749;-72
2023/04/06 01:11:02;;;;;;;11.80;7.53;;;;;;;2.67;66.61;99765.34;346687;28;1133;-71
2023/04/06 01:11:14;;;;;;;13.10;7.90;;;;;;;2.66;66.45;99764.50;345871;28;1995;-73
2023/04/06 01:11:27;;;;;;;13.23;8.25;;;;;;;2.70;66.93;99763.66;346383;28;1285;-72
2023/04/06 01:11:39;;;;;;;12.38;8.02;;;;;;;2.73;66.92;99761.06;345820;28;1779;-72
2023/04/06 01:11:51;;;;;;;9.90;7.45;;;;;;;2.73;66.48;99765.34;346058;28;1439;-71
2023/04/06 01:12:03;;;;;;;10.88;7.43;;;;;;;2.72;67.03;99759.38;346303;28;1349;-72
2023/04/06 01:12:15;;;;;;;10.73;7.43;;;;;;;2.76;67.03;99766.22;345263;28;1294;-72
2023/04/06 01:12:27;;;;;;;10.77;7.68;;;;;;;2.77;67.26;99767.91;345761;28;1797;-71
2023/04/06 01:12:39;;;;;;;10.40;7.68;;;;;;;2.77;66.72;99767.91;346401;28;1177;-71
2023/04/06 01:12:51;;;;;;;10.32;7.45;;;;;;;2.76;67.11;99761.09;346353;28;1277;-71
2023/04/06 01:13:03;;;;;;;11.38;7.50;;;;;;;2.76;66.39;99763.66;346213;28;1067;-71
2023/04/06 01:13:16;;;;;;;12.30;7.50;;;;;;;2.77;66.74;99762.78;346232;28;1073;-71
2023/04/06 01:13:28;;;;;;;13.60;7.70;;;;;;;2.78;66.43;99763.66;345693;28;2078;-71
2023/04/06 01:13:41;;;;;;;13.93;7.38;;;;;;;2.77;66.60;99762.78;346044;28;1271;-72
2023/04/06 01:13:53;;;;;;;13.30;7.25;;;;;;;2.79;65.91;99755.94;344925;28;1362;-71
2023/04/06 01:14:05;;;;;;;13.40;7.40;;;;;;;2.82;65.98;99767.94;344272;28;1112;-71
2023/04/06 01:14:17;;;;;;;11.07;7.03;;;;;;;2.79;65.16;99771.34;344743;28;1031;-72